Flight Track Log - Related Links

Times and Time Zones

All times are in EDT time to prevent confusion due to time zone crossing. See the FLG3642 flight status page for this flight to view local times or setup timezone preferences in your user account.

Time Position Orientation Groundspeed Altitude Reporting Facility
EDT Latitude Longitude Course Direction KTS MPH feet Rate Location/Type
Wed 09:31:54 AM 33.6500 -84.4833 11° North 195 224 3,200  Level Atlanta TRACON
Wed 09:32:48 AM 33.6833 -84.5667 296° West 262 302 5,700 2,722 Climbing Atlanta TRACON
Wed 09:33:42 AM 33.7500 -84.5833 348° North 297 342 8,100 2,141 Climbing Atlanta TRACON
Wed 09:34:00 AM 33.9328 -84.2662 320° Northwest  Level FlightAware Approximate
Wed 09:35:00 AM 34.0560 -84.2667 North  Level FlightAware Approximate
Wed 09:35:53 AM 33.8936 -84.4642 35° Northeast 292 336 12,300  Level Atlanta Center
Wed 09:36:00 AM 34.1794 -84.2667 North  Level FlightAware Approximate
Wed 09:36:53 AM 33.9919 -84.3819 35° Northeast 383 441 13,900  Level Atlanta Center
Wed 09:37:00 AM 34.3023 -84.2621 11° North  Level FlightAware Approximate
Wed 09:37:53 AM 34.0819 -84.3497 17° North 370 426 15,100  Level Atlanta Center
Wed 09:38:53 AM 34.2092 -84.3100 14° North 405 466 16,700 1,400 Climbing Atlanta Center
Wed 09:39:53 AM 34.3242 -84.2728 15° North 414 476 17,900 1,200 Climbing Atlanta Center
Wed 09:40:53 AM 34.4264 -84.2478 11° North 414 476 19,100 1,300 Climbing Atlanta Center
Wed 09:41:53 AM 34.5433 -84.2228 10° North 414 476 20,500 1,450 Climbing Atlanta Center
Wed 09:42:53 AM 34.6561 -84.1953 11° North 409 471 22,000 1,450 Climbing Atlanta Center
Wed 09:43:53 AM 34.7689 -84.1678 11° North 409 471 23,400 1,250 Climbing Atlanta Center
Wed 09:44:53 AM 34.8794 -84.1425 11° North 409 471 24,500 1,050 Climbing Atlanta Center
Wed 09:45:53 AM 34.9964 -84.1147 11° North 409 471 25,500 1,000 Climbing Atlanta Center
Wed 09:46:53 AM 35.1092 -84.0894 10° North 409 471 26,500 850 Climbing Atlanta Center
Wed 09:47:53 AM 35.2258 -84.0617 11° North 409 471 27,200 700 Climbing Atlanta Center
Wed 09:48:53 AM 35.3406 -84.0336 11° North 414 476 27,900 700 Climbing Atlanta Center
Wed 09:49:53 AM 35.4594 -84.0031 12° North 419 482 28,600 700 Climbing Atlanta Center
Wed 09:50:53 AM 35.5786 -83.9750 11° North 424 488 29,300 600 Climbing Atlanta Center
Wed 09:51:53 AM 35.6975 -83.9442 12° North 430 495 29,800 500 Climbing Atlanta Center
Wed 09:52:53 AM 35.8206 -83.9133 11° North 435 501 30,300 500 Climbing Atlanta Center
Wed 09:53:53 AM 35.9433 -83.8719 15° North 435 501 30,800 350 Climbing Atlanta Center
Wed 09:54:53 AM 36.0558 -83.8025 27° Northeast 442 509 31,000 100 Climbing Atlanta Center
Wed 09:55:53 AM 36.1725 -83.7275 27° Northeast 454 522 31,000  Level Atlanta Center
Wed 09:57:42 AM 36.3831 -83.5914 27° Northeast 480 552 31,000  Level Indianapolis Center
Wed 09:58:44 AM 36.5256 -83.5022 27° Northeast 478 550 31,000  Level Indianapolis Center
Wed 09:59:46 AM 36.6433 -83.4256 28° Northeast 471 542 31,000  Level Indianapolis Center
Wed 10:00:48 AM 36.7606 -83.3500 27° Northeast 470 541 31,000  Level Indianapolis Center
Wed 10:01:50 AM 36.8750 -83.2656 31° Northeast 471 542 31,000  Level Indianapolis Center
Wed 10:02:52 AM 36.9633 -83.1347 50° Northeast 483 556 31,000  Level Indianapolis Center
Wed 10:03:54 AM 37.0525 -83.0033 50° Northeast 484 557 31,000  Level Indianapolis Center
Wed 10:04:56 AM 37.1414 -82.8700 50° Northeast 487 560 31,000  Level Indianapolis Center
Wed 10:05:58 AM 37.2286 -82.7383 50° Northeast 487 560 31,000  Level Indianapolis Center
Wed 10:07:00 AM 37.3169 -82.6061 50° Northeast 491 565 31,000  Level Indianapolis Center
Wed 10:08:02 AM 37.4200 -82.4511 50° Northeast 494 568 31,000  Level Indianapolis Center
Wed 10:09:04 AM 37.5083 -82.3169 50° Northeast 494 568 31,000  Level Indianapolis Center
Wed 10:10:06 AM 37.5958 -82.1825 51° Northeast 496 571 31,000  Level Indianapolis Center
Wed 10:11:08 AM 37.6844 -82.0486 50° Northeast 495 570 31,000  Level Indianapolis Center
Wed 10:12:10 AM 37.7719 -81.9136 51° Northeast 494 568 31,000  Level Indianapolis Center
Wed 10:13:12 AM 37.8594 -81.7781 51° Northeast 493 567 31,000  Level Indianapolis Center
Wed 10:14:14 AM 37.9458 -81.6447 51° Northeast 492 566 31,000  Level Indianapolis Center
Wed 10:15:16 AM 38.0486 -81.4836 51° Northeast 493 567 31,000  Level Indianapolis Center
Wed 10:16:18 AM 38.1333 -81.3492 51° Northeast 491 565 31,000  Level Indianapolis Center
Wed 10:17:20 AM 38.2186 -81.2139 51° Northeast 493 567 31,000  Level Indianapolis Center
Wed 10:18:31 AM 38.3175 -81.0647 50° Northeast 495 570 31,000  Level Washington Center
Wed 10:19:23 AM 38.3889 -80.9444 53° Northeast 492 566 31,000  Level Indianapolis Center
Wed 10:20:25 AM 38.4733 -80.8097 51° Northeast 489 563 31,000  Level Indianapolis Center
Wed 10:21:27 AM 38.5742 -80.6478 51° Northeast 488 562 31,000  Level Indianapolis Center
Wed 10:22:29 AM 38.6594 -80.5117 51° Northeast 491 565 31,000 -435 Level Indianapolis Center
Wed 10:23:31 AM 38.7436 -80.3753 52° Northeast 490 564 30,100 -919 Descending Indianapolis Center
Wed 10:24:33 AM 38.8281 -80.2381 52° Northeast 491 565 29,100 -550 Descending Indianapolis Center
Wed 10:25:31 AM 38.9167 -80.0928 52° Northeast 486 559 29,000 -51 Descending Washington Center
Wed 10:26:31 AM 38.9664 -79.9303 68° East 481 554 29,000  Level Washington Center
Wed 10:27:31 AM 39.0072 -79.7803 71° East 481 554 29,000  Level Washington Center
Wed 10:28:31 AM 39.0567 -79.6122 69° East 486 559 29,000  Level Washington Center
Wed 10:29:31 AM 39.1019 -79.4461 71° East 492 566 29,000  Level Washington Center
Wed 10:30:31 AM 39.1486 -79.2825 70° East 486 559 29,000  Level Washington Center
Wed 10:31:31 AM 39.1911 -79.1186 71° East 481 554 29,000 -950 Level Washington Center
Wed 10:32:31 AM 39.2436 -78.9603 67° East 481 554 27,100 -2,400 Descending Washington Center
Wed 10:33:31 AM 39.3247 -78.8111 55° Northeast 457 526 24,200 -2,777 Descending Washington Center
Wed 10:34:32 AM 39.3928 -78.6800 56° Northeast 451 519 21,500 -2,550 Descending Washington Center
Wed 10:35:31 AM 39.4606 -78.5539 55° Northeast 441 507 19,100 -2,370 Descending Washington Center
Wed 10:36:31 AM 39.5261 -78.4300 56° Northeast 428 493 16,800 -2,050 Descending Washington Center
Wed 10:37:31 AM 39.5914 -78.3114 54° Northeast 417 480 15,000 -740 Descending Washington Center
Wed 10:39:05 AM 39.6814 -78.1358 56° Northeast 416 479 14,900 -39 Descending New York Center
Wed 10:40:04 AM 39.6925 -77.9886 84° East 403 464 14,900 50 Level New York Center
Wed 10:41:05 AM 39.7094 -77.8472 81° East 398 458 15,000 50 Climbing New York Center
Wed 10:42:03 AM 39.7844 -77.7439 47° Northeast 380 437 15,000  Level New York Center
Wed 10:43:03 AM 39.8611 -77.6433 45° Northeast 377 434 15,000 -148 Level New York Center
Wed 10:44:05 AM 39.9289 -77.5553 45° Northeast 387 445 14,700 -1,200 Descending New York Center
Wed 10:45:03 AM 40.0031 -77.4594 45° Northeast 344 396 12,600 -2,288 Descending New York Center
Wed 10:46:03 AM 40.0750 -77.3686 44° Northeast 332 382 10,200 -2,083 Descending New York Center
Wed 10:47:04 AM 40.1311 -77.2953 45° Northeast 325 374 8,400 -2,380 Descending New York Center
Wed 10:48:04 AM 40.1942 -77.2086 46° Northeast 307 353 5,400 -2,100 Descending New York Center
Wed 10:49:04 AM 40.2436 -77.1453 44° Northeast 291 335 4,200 -1,140 Descending New York Center
Wed 10:50:05 AM 40.2814 -77.0644 58° Northeast 247 284 3,100 -545 Descending New York Center
Wed 10:51:05 AM 40.2811 -76.9908 90° East 229 264 3,100 -51 Level New York Center
Wed 10:52:03 AM 40.2664 -76.9106 103° East 217 250 3,000 -103 Descending New York Center

Login

Don't have an account? Register now (free) for customized features, flight alerts, and more!